sensor_id;sensor_type;location;lat;lon;timestamp;P1;durP1;ratioP1;P2;durP2;ratioP2
37823;SDS011;23667;43.246;26.576;2022-09-12T00:00:30;0.77;;;0.10;;
37823;SDS011;23667;43.246;26.576;2022-09-12T00:02:56;4.35;;;0.30;;
37823;SDS011;23667;43.246;26.576;2022-09-12T00:05:22;4.97;;;0.30;;
37823;SDS011;23667;43.246;26.576;2022-09-12T00:07:49;2.38;;;0.30;;
37823;SDS011;23667;43.246;26.576;2022-09-12T00:10:15;1.65;;;0.30;;
37823;SDS011;23667;43.246;26.576;2022-09-12T00:12:41;0.63;;;0.20;;
37823;SDS011;23667;43.246;26.576;2022-09-12T00:15:06;2.85;;;0.20;;
37823;SDS011;23667;43.246;26.576;2022-09-12T00:17:33;2.45;;;0.35;;
37823;SDS011;23667;43.246;26.576;2022-09-12T00:19:59;0.73;;;0.20;;
37823;SDS011;23667;43.246;26.576;2022-09-12T00:22:28;3.10;;;0.30;;
37823;SDS011;23667;43.246;26.576;2022-09-12T00:24:54;4.45;;;0.20;;
37823;SDS011;23667;43.246;26.576;2022-09-12T00:27:19;5.32;;;0.50;;
37823;SDS011;23667;43.246;26.576;2022-09-12T00:29:45;0.57;;;0.15;;
37823;SDS011;23667;43.246;26.576;2022-09-12T00:32:10;7.88;;;0.30;;
37823;SDS011;23667;43.246;26.576;2022-09-12T00:34:35;0.80;;;0.20;;
37823;SDS011;23667;43.246;26.576;2022-09-12T00:37:01;1.77;;;0.47;;
37823;SDS011;23667;43.246;26.576;2022-09-12T00:39:27;1.35;;;0.30;;
37823;SDS011;23667;43.246;26.576;2022-09-12T00:41:52;1.95;;;0.40;;
37823;SDS011;23667;43.246;26.576;2022-09-12T00:52:16;1.48;;;0.20;;
37823;SDS011;23667;43.246;26.576;2022-09-12T00:55:20;3.25;;;0.20;;
37823;SDS011;23667;43.246;26.576;2022-09-12T00:57:51;0.60;;;0.20;;
37823;SDS011;23667;43.246;26.576;2022-09-12T01:00:21;1.45;;;0.30;;
37823;SDS011;23667;43.246;26.576;2022-09-12T01:02:49;1.85;;;0.20;;
37823;SDS011;23667;43.246;26.576;2022-09-12T01:05:19;0.60;;;0.20;;
37823;SDS011;23667;43.246;26.576;2022-09-12T01:07:46;0.65;;;0.15;;
37823;SDS011;23667;43.246;26.576;2022-09-12T01:10:14;1.63;;;0.40;;
37823;SDS011;23667;43.246;26.576;2022-09-12T01:12:40;0.43;;;0.10;;
37823;SDS011;23667;43.246;26.576;2022-09-12T01:15:07;1.38;;;0.43;;
37823;SDS011;23667;43.246;26.576;2022-09-12T01:23:19;1.05;;;0.30;;
37823;SDS011;23667;43.246;26.576;2022-09-12T01:28:49;1.05;;;0.32;;
37823;SDS011;23667;43.246;26.576;2022-09-12T01:31:54;2.45;;;0.20;;
37823;SDS011;23667;43.246;26.576;2022-09-12T01:34:25;0.60;;;0.10;;
37823;SDS011;23667;43.246;26.576;2022-09-12T01:39:49;0.88;;;0.25;;
37823;SDS011;23667;43.246;26.576;2022-09-12T01:44:54;4.07;;;0.30;;
37823;SDS011;23667;43.246;26.576;2022-09-12T01:50:04;0.63;;;0.20;;
37823;SDS011;23667;43.246;26.576;2022-09-12T01:52:43;1.67;;;0.20;;
37823;SDS011;23667;43.246;26.576;2022-09-12T01:58:21;5.43;;;0.32;;
37823;SDS011;23667;43.246;26.576;2022-09-12T02:01:05;0.50;;;0.20;;
37823;SDS011;23667;43.246;26.576;2022-09-12T02:03:33;2.88;;;0.20;;
37823;SDS011;23667;43.246;26.576;2022-09-12T02:06:19;4.13;;;0.38;;
37823;SDS011;23667;43.246;26.576;2022-09-12T02:08:51;4.13;;;0.30;;
37823;SDS011;23667;43.246;26.576;2022-09-12T02:11:19;6.10;;;0.20;;
37823;SDS011;23667;43.246;26.576;2022-09-12T02:13:53;1.95;;;0.20;;
37823;SDS011;23667;43.246;26.576;2022-09-12T02:16:31;2.25;;;0.30;;
37823;SDS011;23667;43.246;26.576;2022-09-12T02:19:11;0.55;;;0.13;;
37823;SDS011;23667;43.246;26.576;2022-09-12T02:21:41;0.30;;;0.13;;
37823;SDS011;23667;43.246;26.576;2022-09-12T02:24:11;5.68;;;0.30;;
37823;SDS011;23667;43.246;26.576;2022-09-12T02:29:42;3.83;;;0.20;;
37823;SDS011;23667;43.246;26.576;2022-09-12T02:37:53;0.60;;;0.20;;
37823;SDS011;23667;43.246;26.576;2022-09-12T02:40:28;2.55;;;0.30;;
37823;SDS011;23667;43.246;26.576;2022-09-12T02:42:54;0.55;;;0.20;;
37823;SDS011;23667;43.246;26.576;2022-09-12T02:45:21;3.35;;;0.20;;
37823;SDS011;23667;43.246;26.576;2022-09-12T02:47:48;3.28;;;0.20;;
37823;SDS011;23667;43.246;26.576;2022-09-12T02:50:17;1.00;;;0.20;;
37823;SDS011;23667;43.246;26.576;2022-09-12T02:52:43;2.53;;;0.10;;
37823;SDS011;23667;43.246;26.576;2022-09-12T02:55:10;0.85;;;0.20;;
37823;SDS011;23667;43.246;26.576;2022-09-12T02:57:36;3.28;;;0.35;;
37823;SDS011;23667;43.246;26.576;2022-09-12T03:00:02;3.45;;;0.30;;
37823;SDS011;23667;43.246;26.576;2022-09-12T03:08:49;2.42;;;0.20;;
37823;SDS011;23667;43.246;26.576;2022-09-12T03:11:10;3.05;;;0.47;;
37823;SDS011;23667;43.246;26.576;2022-09-12T03:16:28;1.52;;;0.20;;
37823;SDS011;23667;43.246;26.576;2022-09-12T03:22:15;0.77;;;0.20;;
37823;SDS011;23667;43.246;26.576;2022-09-12T03:25:10;1.45;;;0.30;;
37823;SDS011;23667;43.246;26.576;2022-09-12T03:27:49;0.80;;;0.20;;
37823;SDS011;23667;43.246;26.576;2022-09-12T03:30:23;2.95;;;0.30;;
37823;SDS011;23667;43.246;26.576;2022-09-12T03:32:50;2.70;;;0.47;;
37823;SDS011;23667;43.246;26.576;2022-09-12T03:35:18;1.33;;;0.30;;
37823;SDS011;23667;43.246;26.576;2022-09-12T03:37:45;1.95;;;0.50;;
37823;SDS011;23667;43.246;26.576;2022-09-12T03:40:12;1.40;;;0.30;;
37823;SDS011;23667;43.246;26.576;2022-09-12T03:42:39;1.35;;;0.20;;
37823;SDS011;23667;43.246;26.576;2022-09-12T03:45:06;2.25;;;0.30;;
37823;SDS011;23667;43.246;26.576;2022-09-12T03:47:33;6.13;;;0.30;;
37823;SDS011;23667;43.246;26.576;2022-09-12T03:49:59;2.55;;;0.35;;
37823;SDS011;23667;43.246;26.576;2022-09-12T03:52:25;2.20;;;0.30;;
37823;SDS011;23667;43.246;26.576;2022-09-12T03:54:50;1.55;;;0.40;;
37823;SDS011;23667;43.246;26.576;2022-09-12T03:57:16;0.63;;;0.30;;
37823;SDS011;23667;43.246;26.576;2022-09-12T03:59:42;1.45;;;0.30;;
37823;SDS011;23667;43.246;26.576;2022-09-12T04:02:07;2.45;;;0.30;;
37823;SDS011;23667;43.246;26.576;2022-09-12T04:04:36;2.50;;;0.30;;
37823;SDS011;23667;43.246;26.576;2022-09-12T04:07:02;3.40;;;0.40;;
37823;SDS011;23667;43.246;26.576;2022-09-12T04:09:27;4.68;;;0.40;;
37823;SDS011;23667;43.246;26.576;2022-09-12T04:11:53;0.95;;;0.30;;
37823;SDS011;23667;43.246;26.576;2022-09-12T04:14:18;2.58;;;0.30;;
37823;SDS011;23667;43.246;26.576;2022-09-12T04:16:44;2.38;;;0.52;;
37823;SDS011;23667;43.246;26.576;2022-09-12T04:19:09;4.18;;;0.57;;
37823;SDS011;23667;43.246;26.576;2022-09-12T04:21:35;5.70;;;0.40;;
37823;SDS011;23667;43.246;26.576;2022-09-12T04:24:01;2.17;;;0.40;;
37823;SDS011;23667;43.246;26.576;2022-09-12T04:26:27;1.23;;;0.38;;
37823;SDS011;23667;43.246;26.576;2022-09-12T04:28:53;1.83;;;0.40;;
37823;SDS011;23667;43.246;26.576;2022-09-12T04:31:22;9.10;;;0.40;;
37823;SDS011;23667;43.246;26.576;2022-09-12T04:33:52;3.03;;;0.40;;
37823;SDS011;23667;43.246;26.576;2022-09-12T04:36:19;2.03;;;0.40;;
37823;SDS011;23667;43.246;26.576;2022-09-12T04:38:45;1.42;;;0.40;;
37823;SDS011;23667;43.246;26.576;2022-09-12T04:43:51;5.18;;;0.40;;
37823;SDS011;23667;43.246;26.576;2022-09-12T04:46:18;2.35;;;0.75;;
37823;SDS011;23667;43.246;26.576;2022-09-12T04:48:44;4.45;;;0.45;;
37823;SDS011;23667;43.246;26.576;2022-09-12T04:51:11;1.67;;;0.30;;
37823;SDS011;23667;43.246;26.576;2022-09-12T04:53:42;3.47;;;0.38;;
37823;SDS011;23667;43.246;26.576;2022-09-12T04:56:13;3.67;;;0.40;;
37823;SDS011;23667;43.246;26.576;2022-09-12T04:58:39;3.60;;;0.60;;
37823;SDS011;23667;43.246;26.576;2022-09-12T05:01:06;1.42;;;0.40;;
37823;SDS011;23667;43.246;26.576;2022-09-12T05:03:48;1.65;;;0.40;;
37823;SDS011;23667;43.246;26.576;2022-09-12T05:06:15;2.25;;;0.30;;
37823;SDS011;23667;43.246;26.576;2022-09-12T05:08:48;7.05;;;0.40;;
37823;SDS011;23667;43.246;26.576;2022-09-12T05:11:16;1.92;;;0.38;;
37823;SDS011;23667;43.246;26.576;2022-09-12T05:13:46;5.97;;;0.30;;
37823;SDS011;23667;43.246;26.576;2022-09-12T05:16:13;2.90;;;0.30;;
37823;SDS011;23667;43.246;26.576;2022-09-12T05:18:40;1.75;;;0.20;;
37823;SDS011;23667;43.246;26.576;2022-09-12T05:21:06;3.20;;;0.20;;
37823;SDS011;23667;43.246;26.576;2022-09-12T05:23:34;4.60;;;0.30;;
37823;SDS011;23667;43.246;26.576;2022-09-12T05:26:00;4.82;;;0.40;;
37823;SDS011;23667;43.246;26.576;2022-09-12T05:28:30;3.97;;;0.20;;
37823;SDS011;23667;43.246;26.576;2022-09-12T05:33:27;10.00;;;0.40;;
37823;SDS011;23667;43.246;26.576;2022-09-12T05:35:53;1.67;;;0.30;;
37823;SDS011;23667;43.246;26.576;2022-09-12T05:38:19;2.80;;;0.43;;
37823;SDS011;23667;43.246;26.576;2022-09-12T05:40:44;1.40;;;0.20;;
37823;SDS011;23667;43.246;26.576;2022-09-12T05:43:10;2.15;;;0.75;;
37823;SDS011;23667;43.246;26.576;2022-09-12T05:45:36;2.40;;;0.85;;
37823;SDS011;23667;43.246;26.576;2022-09-12T05:48:03;2.88;;;0.30;;
37823;SDS011;23667;43.246;26.576;2022-09-12T05:50:28;1.55;;;0.30;;
37823;SDS011;23667;43.246;26.576;2022-09-12T05:52:55;0.55;;;0.20;;
37823;SDS011;23667;43.246;26.576;2022-09-12T05:55:21;0.82;;;0.32;;
37823;SDS011;23667;43.246;26.576;2022-09-12T05:57:47;1.00;;;0.15;;
37823;SDS011;23667;43.246;26.576;2022-09-12T06:00:13;1.20;;;0.20;;
37823;SDS011;23667;43.246;26.576;2022-09-12T06:02:39;1.80;;;0.20;;
37823;SDS011;23667;43.246;26.576;2022-09-12T06:05:05;6.82;;;0.30;;
37823;SDS011;23667;43.246;26.576;2022-09-12T06:07:30;2.33;;;0.30;;
37823;SDS011;23667;43.246;26.576;2022-09-12T06:09:56;1.00;;;0.20;;
37823;SDS011;23667;43.246;26.576;2022-09-12T06:12:23;3.08;;;0.20;;
37823;SDS011;23667;43.246;26.576;2022-09-12T06:14:53;1.75;;;0.20;;
37823;SDS011;23667;43.246;26.576;2022-09-12T06:17:18;2.97;;;0.20;;
37823;SDS011;23667;43.246;26.576;2022-09-12T06:19:43;7.35;;;0.30;;
37823;SDS011;23667;43.246;26.576;2022-09-12T06:22:09;3.08;;;0.30;;
37823;SDS011;23667;43.246;26.576;2022-09-12T06:24:35;3.00;;;0.20;;
37823;SDS011;23667;43.246;26.576;2022-09-12T06:27:00;1.02;;;0.13;;
37823;SDS011;23667;43.246;26.576;2022-09-12T06:29:26;3.05;;;0.30;;
37823;SDS011;23667;43.246;26.576;2022-09-12T06:31:52;1.15;;;0.20;;
37823;SDS011;23667;43.246;26.576;2022-09-12T06:34:18;1.30;;;0.20;;
37823;SDS011;23667;43.246;26.576;2022-09-12T06:36:47;1.05;;;0.30;;
37823;SDS011;23667;43.246;26.576;2022-09-12T06:39:13;5.82;;;0.30;;
37823;SDS011;23667;43.246;26.576;2022-09-12T06:41:41;2.03;;;0.22;;
37823;SDS011;23667;43.246;26.576;2022-09-12T06:44:08;8.18;;;0.65;;
37823;SDS011;23667;43.246;26.576;2022-09-12T06:46:36;5.28;;;0.30;;
37823;SDS011;23667;43.246;26.576;2022-09-12T06:49:02;1.65;;;0.30;;
37823;SDS011;23667;43.246;26.576;2022-09-12T06:51:27;1.15;;;0.20;;
37823;SDS011;23667;43.246;26.576;2022-09-12T06:53:54;0.75;;;0.20;;
37823;SDS011;23667;43.246;26.576;2022-09-12T06:56:21;1.65;;;0.10;;
37823;SDS011;23667;43.246;26.576;2022-09-12T06:58:49;3.20;;;0.20;;
37823;SDS011;23667;43.246;26.576;2022-09-12T07:01:23;2.17;;;0.10;;
37823;SDS011;23667;43.246;26.576;2022-09-12T07:03:51;1.30;;;0.20;;
37823;SDS011;23667;43.246;26.576;2022-09-12T07:06:19;4.47;;;0.20;;
37823;SDS011;23667;43.246;26.576;2022-09-12T07:08:48;7.07;;;0.50;;
37823;SDS011;23667;43.246;26.576;2022-09-12T07:13:43;2.30;;;0.20;;
37823;SDS011;23667;43.246;26.576;2022-09-12T07:16:10;2.38;;;0.52;;
37823;SDS011;23667;43.246;26.576;2022-09-12T07:18:37;2.92;;;0.20;;
37823;SDS011;23667;43.246;26.576;2022-09-12T07:21:04;0.50;;;0.10;;
37823;SDS011;23667;43.246;26.576;2022-09-12T07:23:34;6.45;;;0.20;;
37823;SDS011;23667;43.246;26.576;2022-09-12T07:26:00;2.38;;;0.20;;
37823;SDS011;23667;43.246;26.576;2022-09-12T07:28:27;0.55;;;0.10;;
37823;SDS011;23667;43.246;26.576;2022-09-12T07:30:56;1.00;;;0.20;;
37823;SDS011;23667;43.246;26.576;2022-09-12T07:33:23;1.63;;;0.20;;
37823;SDS011;23667;43.246;26.576;2022-09-12T07:35:51;3.15;;;0.20;;
37823;SDS011;23667;43.246;26.576;2022-09-12T07:38:18;3.35;;;0.20;;
37823;SDS011;23667;43.246;26.576;2022-09-12T07:40:47;2.75;;;0.35;;
37823;SDS011;23667;43.246;26.576;2022-09-12T07:43:13;3.53;;;0.20;;
37823;SDS011;23667;43.246;26.576;2022-09-12T07:45:39;5.05;;;0.30;;
37823;SDS011;23667;43.246;26.576;2022-09-12T07:48:09;3.70;;;0.20;;
37823;SDS011;23667;43.246;26.576;2022-09-12T07:50:35;4.35;;;0.40;;
37823;SDS011;23667;43.246;26.576;2022-09-12T07:53:02;1.13;;;0.17;;
37823;SDS011;23667;43.246;26.576;2022-09-12T07:55:28;1.05;;;0.20;;
37823;SDS011;23667;43.246;26.576;2022-09-12T07:57:53;1.90;;;0.20;;
37823;SDS011;23667;43.246;26.576;2022-09-12T08:00:19;2.45;;;0.20;;
37823;SDS011;23667;43.246;26.576;2022-09-12T08:02:49;0.85;;;0.20;;
37823;SDS011;23667;43.246;26.576;2022-09-12T08:05:15;2.25;;;0.30;;
37823;SDS011;23667;43.246;26.576;2022-09-12T08:07:41;2.47;;;0.43;;
37823;SDS011;23667;43.246;26.576;2022-09-12T08:10:07;1.00;;;0.20;;
37823;SDS011;23667;43.246;26.576;2022-09-12T08:12:32;0.60;;;0.10;;
37823;SDS011;23667;43.246;26.576;2022-09-12T08:14:58;3.13;;;0.20;;
37823;SDS011;23667;43.246;26.576;2022-09-12T08:17:24;0.93;;;0.20;;
37823;SDS011;23667;43.246;26.576;2022-09-12T08:19:50;2.78;;;0.30;;
37823;SDS011;23667;43.246;26.576;2022-09-12T08:22:16;3.47;;;0.20;;
37823;SDS011;23667;43.246;26.576;2022-09-12T08:24:46;0.52;;;0.10;;
37823;SDS011;23667;43.246;26.576;2022-09-12T08:27:12;1.55;;;0.30;;
37823;SDS011;23667;43.246;26.576;2022-09-12T08:29:38;1.63;;;0.20;;
37823;SDS011;23667;43.246;26.576;2022-09-12T08:32:05;0.43;;;0.13;;
37823;SDS011;23667;43.246;26.576;2022-09-12T08:34:30;1.80;;;0.30;;
37823;SDS011;23667;43.246;26.576;2022-09-12T08:36:56;1.35;;;0.30;;
37823;SDS011;23667;43.246;26.576;2022-09-12T08:39:22;1.10;;;0.20;;
37823;SDS011;23667;43.246;26.576;2022-09-12T08:41:54;2.00;;;0.20;;
37823;SDS011;23667;43.246;26.576;2022-09-12T08:47:27;1.83;;;0.38;;
37823;SDS011;23667;43.246;26.576;2022-09-12T08:55:35;2.15;;;0.20;;
37823;SDS011;23667;43.246;26.576;2022-09-12T08:58:11;3.30;;;0.28;;
37823;SDS011;23667;43.246;26.576;2022-09-12T09:00:45;1.92;;;0.20;;
37823;SDS011;23667;43.246;26.576;2022-09-12T09:03:38;4.33;;;0.30;;
37823;SDS011;23667;43.246;26.576;2022-09-12T09:15:32;1.05;;;0.10;;
37823;SDS011;23667;43.246;26.576;2022-09-12T09:18:00;1.77;;;0.40;;
37823;SDS011;23667;43.246;26.576;2022-09-12T09:23:11;4.25;;;0.20;;
37823;SDS011;23667;43.246;26.576;2022-09-12T09:28:42;2.72;;;0.35;;
37823;SDS011;23667;43.246;26.576;2022-09-12T09:31:13;1.27;;;0.10;;
37823;SDS011;23667;43.246;26.576;2022-09-12T09:33:40;5.25;;;0.10;;
37823;SDS011;23667;43.246;26.576;2022-09-12T09:39:08;4.60;;;0.20;;
37823;SDS011;23667;43.246;26.576;2022-09-12T09:44:17;0.90;;;0.30;;
37823;SDS011;23667;43.246;26.576;2022-09-12T09:46:43;2.28;;;0.17;;
37823;SDS011;23667;43.246;26.576;2022-09-12T09:49:10;1.33;;;0.20;;
37823;SDS011;23667;43.246;26.576;2022-09-12T09:51:38;1.42;;;0.20;;
37823;SDS011;23667;43.246;26.576;2022-09-12T09:54:11;0.57;;;0.30;;
37823;SDS011;23667;43.246;26.576;2022-09-12T09:56:41;0.85;;;0.20;;
37823;SDS011;23667;43.246;26.576;2022-09-12T09:59:11;3.95;;;0.80;;
37823;SDS011;23667;43.246;26.576;2022-09-12T10:01:51;0.85;;;0.30;;
37823;SDS011;23667;43.246;26.576;2022-09-12T10:04:23;1.52;;;0.20;;
37823;SDS011;23667;43.246;26.576;2022-09-12T10:06:56;1.30;;;0.30;;
37823;SDS011;23667;43.246;26.576;2022-09-12T10:09:27;1.27;;;0.28;;
37823;SDS011;23667;43.246;26.576;2022-09-12T10:11:53;1.83;;;0.10;;
37823;SDS011;23667;43.246;26.576;2022-09-12T10:17:00;4.28;;;0.20;;
37823;SDS011;23667;43.246;26.576;2022-09-12T10:19:46;1.70;;;0.30;;
37823;SDS011;23667;43.246;26.576;2022-09-12T10:22:16;3.15;;;0.20;;
37823;SDS011;23667;43.246;26.576;2022-09-12T10:24:50;1.20;;;0.13;;
37823;SDS011;23667;43.246;26.576;2022-09-12T10:27:20;5.95;;;0.20;;
37823;SDS011;23667;43.246;26.576;2022-09-12T10:30:33;2.00;;;0.10;;
37823;SDS011;23667;43.246;26.576;2022-09-12T10:32:41;2.90;;;0.10;;
37823;SDS011;23667;43.246;26.576;2022-09-12T10:35:20;3.65;;;0.10;;
37823;SDS011;23667;43.246;26.576;2022-09-12T10:37:49;2.17;;;0.28;;
37823;SDS011;23667;43.246;26.576;2022-09-12T10:40:24;6.70;;;0.20;;
37823;SDS011;23667;43.246;26.576;2022-09-12T10:42:53;1.88;;;0.10;;
37823;SDS011;23667;43.246;26.576;2022-09-12T10:47:53;0.40;;;0.10;;
37823;SDS011;23667;43.246;26.576;2022-09-12T10:50:29;1.95;;;0.28;;
37823;SDS011;23667;43.246;26.576;2022-09-12T10:55:38;0.10;;;0.00;;
37823;SDS011;23667;43.246;26.576;2022-09-12T10:58:21;1.92;;;0.10;;
37823;SDS011;23667;43.246;26.576;2022-09-12T11:01:53;1.13;;;0.20;;
37823;SDS011;23667;43.246;26.576;2022-09-12T11:09:53;1.52;;;0.30;;
37823;SDS011;23667;43.246;26.576;2022-09-12T11:24:21;0.30;;;0.10;;
37823;SDS011;23667;43.246;26.576;2022-09-12T11:26:58;0.98;;;0.10;;
37823;SDS011;23667;43.246;26.576;2022-09-12T11:37:45;0.80;;;0.20;;
37823;SDS011;23667;43.246;26.576;2022-09-12T11:45:48;5.20;;;0.35;;
37823;SDS011;23667;43.246;26.576;2022-09-12T11:48:18;5.03;;;0.20;;
37823;SDS011;23667;43.246;26.576;2022-09-12T11:51:03;1.85;;;0.50;;
37823;SDS011;23667;43.246;26.576;2022-09-12T11:53:35;3.27;;;0.20;;
37823;SDS011;23667;43.246;26.576;2022-09-12T11:56:15;0.35;;;0.10;;
37823;SDS011;23667;43.246;26.576;2022-09-12T11:58:43;7.05;;;0.15;;
37823;SDS011;23667;43.246;26.576;2022-09-12T12:01:16;1.58;;;0.10;;
37823;SDS011;23667;43.246;26.576;2022-09-12T12:03:47;5.17;;;0.10;;
37823;SDS011;23667;43.246;26.576;2022-09-12T12:06:17;0.45;;;0.10;;
37823;SDS011;23667;43.246;26.576;2022-09-12T12:08:55;2.45;;;0.10;;
37823;SDS011;23667;43.246;26.576;2022-09-12T12:11:37;2.33;;;0.10;;
37823;SDS011;23667;43.246;26.576;2022-09-12T12:14:15;1.10;;;0.20;;
37823;SDS011;23667;43.246;26.576;2022-09-12T12:16:44;2.35;;;0.20;;
37823;SDS011;23667;43.246;26.576;2022-09-12T12:29:11;4.63;;;0.20;;
37823;SDS011;23667;43.246;26.576;2022-09-12T12:36:56;0.08;;;0.00;;
37823;SDS011;23667;43.246;26.576;2022-09-12T12:40:05;3.85;;;0.20;;
37823;SDS011;23667;43.246;26.576;2022-09-12T12:47:31;4.93;;;0.30;;
37823;SDS011;23667;43.246;26.576;2022-09-12T13:00:47;1.95;;;0.15;;
37823;SDS011;23667;43.246;26.576;2022-09-12T13:03:31;3.03;;;0.20;;
37823;SDS011;23667;43.246;26.576;2022-09-12T13:06:02;1.13;;;0.10;;
37823;SDS011;23667;43.246;26.576;2022-09-12T13:11:14;3.45;;;0.20;;
37823;SDS011;23667;43.246;26.576;2022-09-12T13:13:56;0.65;;;0.22;;
37823;SDS011;23667;43.246;26.576;2022-09-12T13:19:13;2.22;;;0.15;;
37823;SDS011;23667;43.246;26.576;2022-09-12T13:22:01;5.30;;;0.20;;
37823;SDS011;23667;43.246;26.576;2022-09-12T13:24:29;2.95;;;0.20;;
37823;SDS011;23667;43.246;26.576;2022-09-12T13:26:55;3.22;;;0.30;;
37823;SDS011;23667;43.246;26.576;2022-09-12T13:29:24;1.83;;;0.10;;
37823;SDS011;23667;43.246;26.576;2022-09-12T13:31:55;2.70;;;0.20;;
37823;SDS011;23667;43.246;26.576;2022-09-12T13:34:29;2.83;;;0.30;;
37823;SDS011;23667;43.246;26.576;2022-09-12T13:39:52;1.95;;;0.13;;
37823;SDS011;23667;43.246;26.576;2022-09-12T13:47:43;1.13;;;0.20;;
37823;SDS011;23667;43.246;26.576;2022-09-12T13:50:15;0.50;;;0.30;;
37823;SDS011;23667;43.246;26.576;2022-09-12T13:52:45;4.00;;;0.30;;
37823;SDS011;23667;43.246;26.576;2022-09-12T13:57:57;3.00;;;0.47;;
37823;SDS011;23667;43.246;26.576;2022-09-12T14:00:25;3.08;;;0.30;;
37823;SDS011;23667;43.246;26.576;2022-09-12T14:02:52;3.83;;;0.40;;
37823;SDS011;23667;43.246;26.576;2022-09-12T14:05:38;1.48;;;0.20;;
37823;SDS011;23667;43.246;26.576;2022-09-12T14:08:18;5.72;;;0.30;;
37823;SDS011;23667;43.246;26.576;2022-09-12T14:10:44;0.40;;;0.20;;
37823;SDS011;23667;43.246;26.576;2022-09-12T14:13:21;2.67;;;0.20;;
37823;SDS011;23667;43.246;26.576;2022-09-12T14:15:49;11.20;;;0.52;;
37823;SDS011;23667;43.246;26.576;2022-09-12T14:18:24;3.15;;;0.40;;
37823;SDS011;23667;43.246;26.576;2022-09-12T14:20:58;2.58;;;0.20;;
37823;SDS011;23667;43.246;26.576;2022-09-12T14:23:34;6.90;;;0.30;;
37823;SDS011;23667;43.246;26.576;2022-09-12T14:26:07;1.73;;;0.20;;
37823;SDS011;23667;43.246;26.576;2022-09-12T14:28:37;1.65;;;0.25;;
37823;SDS011;23667;43.246;26.576;2022-09-12T14:33:49;4.25;;;0.30;;
37823;SDS011;23667;43.246;26.576;2022-09-12T14:36:29;3.38;;;0.20;;
37823;SDS011;23667;43.246;26.576;2022-09-12T14:39:05;3.78;;;0.20;;
37823;SDS011;23667;43.246;26.576;2022-09-12T14:41:41;5.72;;;0.30;;
37823;SDS011;23667;43.246;26.576;2022-09-12T14:44:12;2.20;;;0.30;;
37823;SDS011;23667;43.246;26.576;2022-09-12T14:46:43;8.70;;;0.50;;
37823;SDS011;23667;43.246;26.576;2022-09-12T14:49:13;1.13;;;0.22;;
37823;SDS011;23667;43.246;26.576;2022-09-12T14:57:02;4.40;;;0.20;;
37823;SDS011;23667;43.246;26.576;2022-09-12T14:59:43;2.78;;;0.20;;
37823;SDS011;23667;43.246;26.576;2022-09-12T15:09:59;2.83;;;0.20;;
37823;SDS011;23667;43.246;26.576;2022-09-12T15:12:27;2.08;;;0.43;;
37823;SDS011;23667;43.246;26.576;2022-09-12T15:14:54;8.05;;;0.63;;
37823;SDS011;23667;43.246;26.576;2022-09-12T15:17:25;5.80;;;0.35;;
37823;SDS011;23667;43.246;26.576;2022-09-12T15:19:50;1.30;;;0.20;;
37823;SDS011;23667;43.246;26.576;2022-09-12T15:22:16;2.40;;;0.20;;
37823;SDS011;23667;43.246;26.576;2022-09-12T15:24:42;6.65;;;0.30;;
37823;SDS011;23667;43.246;26.576;2022-09-12T15:27:09;6.72;;;0.40;;
37823;SDS011;23667;43.246;26.576;2022-09-12T15:29:36;7.90;;;0.47;;
37823;SDS011;23667;43.246;26.576;2022-09-12T15:32:05;1.80;;;0.32;;
37823;SDS011;23667;43.246;26.576;2022-09-12T15:34:33;3.47;;;0.20;;
37823;SDS011;23667;43.246;26.576;2022-09-12T15:36:59;2.45;;;0.30;;
37823;SDS011;23667;43.246;26.576;2022-09-12T15:39:24;13.18;;;1.00;;
37823;SDS011;23667;43.246;26.576;2022-09-12T15:41:51;10.40;;;0.82;;
37823;SDS011;23667;43.246;26.576;2022-09-12T15:44:17;8.38;;;0.50;;
37823;SDS011;23667;43.246;26.576;2022-09-12T15:46:44;9.85;;;0.70;;
37823;SDS011;23667;43.246;26.576;2022-09-12T15:49:09;4.28;;;0.32;;
37823;SDS011;23667;43.246;26.576;2022-09-12T15:51:35;7.25;;;0.55;;
37823;SDS011;23667;43.246;26.576;2022-09-12T15:54:02;3.10;;;0.30;;
37823;SDS011;23667;43.246;26.576;2022-09-12T15:56:28;2.03;;;0.38;;
37823;SDS011;23667;43.246;26.576;2022-09-12T15:58:53;3.53;;;0.50;;
37823;SDS011;23667;43.246;26.576;2022-09-12T16:01:19;2.50;;;0.55;;
37823;SDS011;23667;43.246;26.576;2022-09-12T16:03:45;9.25;;;0.73;;
37823;SDS011;23667;43.246;26.576;2022-09-12T16:06:11;5.57;;;0.40;;
37823;SDS011;23667;43.246;26.576;2022-09-12T16:08:39;3.35;;;0.40;;
37823;SDS011;23667;43.246;26.576;2022-09-12T16:11:26;4.63;;;0.85;;
37823;SDS011;23667;43.246;26.576;2022-09-12T16:13:51;4.22;;;0.88;;
37823;SDS011;23667;43.246;26.576;2022-09-12T16:16:17;3.63;;;0.57;;
37823;SDS011;23667;43.246;26.576;2022-09-12T16:18:43;4.78;;;0.38;;
37823;SDS011;23667;43.246;26.576;2022-09-12T16:21:08;2.83;;;0.60;;
37823;SDS011;23667;43.246;26.576;2022-09-12T16:23:34;3.45;;;0.65;;
37823;SDS011;23667;43.246;26.576;2022-09-12T16:26:00;2.15;;;0.60;;
37823;SDS011;23667;43.246;26.576;2022-09-12T16:28:30;5.05;;;1.13;;
37823;SDS011;23667;43.246;26.576;2022-09-12T16:30:58;6.65;;;1.27;;
37823;SDS011;23667;43.246;26.576;2022-09-12T16:33:28;7.53;;;0.68;;
37823;SDS011;23667;43.246;26.576;2022-09-12T16:36:04;9.18;;;0.70;;
37823;SDS011;23667;43.246;26.576;2022-09-12T16:38:33;2.97;;;0.63;;
37823;SDS011;23667;43.246;26.576;2022-09-12T16:41:00;10.30;;;0.77;;
37823;SDS011;23667;43.246;26.576;2022-09-12T16:43:28;6.68;;;1.42;;
37823;SDS011;23667;43.246;26.576;2022-09-12T16:46:01;2.85;;;1.40;;
37823;SDS011;23667;43.246;26.576;2022-09-12T16:48:27;8.45;;;1.17;;
37823;SDS011;23667;43.246;26.576;2022-09-12T16:50:56;6.40;;;1.15;;
37823;SDS011;23667;43.246;26.576;2022-09-12T16:53:24;5.85;;;1.17;;
37823;SDS011;23667;43.246;26.576;2022-09-12T16:55:50;6.07;;;1.10;;
37823;SDS011;23667;43.246;26.576;2022-09-12T16:58:15;3.35;;;1.20;;
37823;SDS011;23667;43.246;26.576;2022-09-12T17:00:41;6.65;;;1.08;;
37823;SDS011;23667;43.246;26.576;2022-09-12T17:03:06;4.57;;;1.33;;
37823;SDS011;23667;43.246;26.576;2022-09-12T17:05:33;6.53;;;1.73;;
37823;SDS011;23667;43.246;26.576;2022-09-12T17:07:58;3.88;;;1.40;;
37823;SDS011;23667;43.246;26.576;2022-09-12T17:10:24;3.78;;;1.20;;
37823;SDS011;23667;43.246;26.576;2022-09-12T17:12:50;6.38;;;1.52;;
37823;SDS011;23667;43.246;26.576;2022-09-12T17:15:15;3.63;;;1.60;;
37823;SDS011;23667;43.246;26.576;2022-09-12T17:17:41;3.83;;;1.40;;
37823;SDS011;23667;43.246;26.576;2022-09-12T17:20:06;7.07;;;1.30;;
37823;SDS011;23667;43.246;26.576;2022-09-12T17:22:32;4.40;;;0.95;;
37823;SDS011;23667;43.246;26.576;2022-09-12T17:24:58;3.75;;;1.40;;
37823;SDS011;23667;43.246;26.576;2022-09-12T17:27:23;5.57;;;0.93;;
37823;SDS011;23667;43.246;26.576;2022-09-12T17:29:48;4.47;;;1.13;;
37823;SDS011;23667;43.246;26.576;2022-09-12T17:32:14;7.93;;;1.33;;
37823;SDS011;23667;43.246;26.576;2022-09-12T17:34:40;4.75;;;1.35;;
37823;SDS011;23667;43.246;26.576;2022-09-12T17:37:05;3.67;;;1.52;;
37823;SDS011;23667;43.246;26.576;2022-09-12T17:39:30;11.15;;;1.73;;
37823;SDS011;23667;43.246;26.576;2022-09-12T17:41:56;3.38;;;1.50;;
37823;SDS011;23667;43.246;26.576;2022-09-12T17:44:22;8.68;;;1.52;;
37823;SDS011;23667;43.246;26.576;2022-09-12T17:46:48;3.55;;;1.90;;
37823;SDS011;23667;43.246;26.576;2022-09-12T17:49:14;4.53;;;2.17;;
37823;SDS011;23667;43.246;26.576;2022-09-12T17:51:41;4.93;;;2.05;;
37823;SDS011;23667;43.246;26.576;2022-09-12T17:54:11;5.03;;;2.45;;